createdAt,value
2017-11-29T00:02:11.628Z,12.40
2017-11-29T00:04:38.145Z,10.85
2017-11-29T00:07:04.641Z,8.63
2017-11-29T00:09:31.093Z,8.45
2017-11-29T00:11:57.478Z,12.45
2017-11-29T00:14:23.901Z,10.88
2017-11-29T00:16:50.305Z,8.25
2017-11-29T00:19:16.733Z,8.90
2017-11-29T00:21:43.180Z,7.10
2017-11-29T00:24:10.708Z,11.73
2017-11-29T00:26:38.965Z,8.80
2017-11-29T00:29:05.687Z,12.10
2017-11-29T00:31:32.146Z,11.73
2017-11-29T00:33:58.592Z,11.93
2017-11-29T00:36:25.794Z,12.30
2017-11-29T00:38:52.269Z,12.50
2017-11-29T00:41:18.677Z,15.50
2017-11-29T00:43:45.125Z,12.30
2017-11-29T00:46:12.286Z,14.15
2017-11-29T00:48:39.418Z,11.63
2017-11-29T00:51:06.650Z,13.00
2017-11-29T00:53:33.133Z,10.65
2017-11-29T00:55:59.668Z,15.10
2017-11-29T00:58:26.845Z,12.50
2017-11-29T01:00:53.278Z,14.70
2017-11-29T01:03:19.697Z,15.63
2017-11-29T01:05:46.131Z,17.52
2017-11-29T01:08:12.545Z,16.77
2017-11-29T01:10:39.657Z,16.02
2017-11-29T01:13:06.153Z,16.35
2017-11-29T01:15:33.313Z,16.95
2017-11-29T01:17:59.689Z,17.40
2017-11-29T01:20:26.116Z,14.35
2017-11-29T01:22:52.593Z,19.50
2017-11-29T01:25:19.093Z,15.50
2017-11-29T01:27:45.549Z,19.52
2017-11-29T01:30:11.933Z,20.35
2017-11-29T01:32:38.383Z,20.65
2017-11-29T01:35:04.843Z,20.25
2017-11-29T01:37:31.294Z,18.37
2017-11-29T01:39:57.689Z,14.50
2017-11-29T01:42:24.106Z,18.23
2017-11-29T01:44:51.338Z,16.62
2017-11-29T01:47:17.790Z,14.45
2017-11-29T01:49:44.953Z,19.55
2017-11-29T01:52:12.852Z,20.67
2017-11-29T01:54:40.022Z,22.08
2017-11-29T01:57:06.456Z,18.17
2017-11-29T01:59:33.581Z,21.33
2017-11-29T02:02:00.005Z,26.90
2017-11-29T02:04:26.453Z,19.80
2017-11-29T02:06:52.873Z,20.23
2017-11-29T02:09:19.249Z,20.85
2017-11-29T02:11:45.665Z,19.65
2017-11-29T02:14:12.070Z,18.83
2017-11-29T02:16:38.492Z,23.23
2017-11-29T02:19:04.945Z,21.30
2017-11-29T02:21:31.357Z,21.55
2017-11-29T02:23:57.797Z,19.10
2017-11-29T02:26:24.285Z,22.65
2017-11-29T02:28:50.706Z,20.08
2017-11-29T02:31:17.178Z,15.55
2017-11-29T02:33:44.375Z,16.27
2017-11-29T02:36:10.746Z,15.55
2017-11-29T02:38:37.174Z,17.35
2017-11-29T02:41:15.925Z,20.58
2017-11-29T02:43:42.383Z,24.20
2017-11-29T02:46:08.789Z,18.27
2017-11-29T02:48:35.252Z,19.75
2017-11-29T02:51:01.690Z,18.10
2017-11-29T02:53:28.174Z,17.30
2017-11-29T02:55:54.560Z,18.12
2017-11-29T02:58:21.046Z,21.33
2017-11-29T03:00:47.517Z,20.55
2017-11-29T03:03:13.893Z,15.65
2017-11-29T03:05:41.026Z,24.87
2017-11-29T03:08:07.437Z,17.95
2017-11-29T03:10:33.898Z,17.92
2017-11-29T03:13:00.288Z,20.20
2017-11-29T03:15:26.936Z,18.75
2017-11-29T03:17:54.062Z,18.15
2017-11-29T03:20:20.466Z,17.85
2017-11-29T03:22:46.909Z,16.10
2017-11-29T03:25:13.354Z,18.58
2017-11-29T03:27:39.737Z,20.50
2017-11-29T03:30:06.945Z,21.87
2017-11-29T03:32:34.106Z,23.35
2017-11-29T03:35:00.474Z,18.23
2017-11-29T03:37:26.954Z,17.98
2017-11-29T03:39:53.334Z,17.83
2017-11-29T03:42:20.455Z,19.37
2017-11-29T03:44:46.821Z,18.83
2017-11-29T03:47:13.930Z,22.42
2017-11-29T03:49:40.262Z,17.45
2017-11-29T03:52:06.724Z,17.75
2017-11-29T03:54:33.130Z,22.40
2017-11-29T03:57:00.264Z,24.15
2017-11-29T03:59:27.389Z,17.25
2017-11-29T04:01:53.861Z,16.00
2017-11-29T04:04:20.246Z,19.15
2017-11-29T04:06:46.693Z,18.92
2017-11-29T04:09:13.085Z,18.77
2017-11-29T04:11:39.533Z,18.90
2017-11-29T04:14:06.022Z,19.67
2017-11-29T04:16:33.177Z,18.40
2017-11-29T04:19:00.303Z,24.37
2017-11-29T04:21:26.801Z,23.62
2017-11-29T04:23:53.247Z,18.23
2017-11-29T04:26:19.726Z,20.05
2017-11-29T04:28:46.145Z,21.20
2017-11-29T04:31:12.603Z,20.40
2017-11-29T04:33:39.010Z,16.17
2017-11-29T04:36:05.489Z,18.10
2017-11-29T04:38:31.890Z,17.73
2017-11-29T04:40:59.029Z,18.02
2017-11-29T04:43:26.205Z,17.33
2017-11-29T04:45:52.589Z,17.12
2017-11-29T04:48:19.079Z,14.32
2017-11-29T04:50:45.562Z,19.60
2017-11-29T04:53:12.694Z,16.95
2017-11-29T04:55:39.150Z,16.85
2017-11-29T04:58:06.284Z,23.02
2017-11-29T05:00:32.714Z,15.07
2017-11-29T05:02:59.093Z,23.35
2017-11-29T05:05:25.516Z,19.90
2017-11-29T05:07:51.930Z,17.10
2017-11-29T05:10:18.353Z,19.35
2017-11-29T05:12:44.813Z,19.80
2017-11-29T05:15:11.218Z,19.60
2017-11-29T05:17:37.641Z,17.67
2017-11-29T05:20:04.337Z,19.08
2017-11-29T05:22:31.476Z,23.08
2017-11-29T05:24:57.873Z,23.17
2017-11-29T05:27:24.290Z,24.92
2017-11-29T05:29:50.730Z,18.67
2017-11-29T05:32:17.902Z,19.15
2017-11-29T05:34:44.357Z,18.65
2017-11-29T05:37:10.823Z,23.40
2017-11-29T05:39:37.249Z,21.67
2017-11-29T05:42:03.678Z,22.58
2017-11-29T05:44:30.838Z,26.40
2017-11-29T05:46:58.018Z,19.48
2017-11-29T05:49:24.454Z,19.75
2017-11-29T05:51:51.196Z,19.25
2017-11-29T05:54:17.594Z,17.80
2017-11-29T05:56:44.799Z,28.95
2017-11-29T05:59:11.313Z,23.50
2017-11-29T06:01:37.716Z,23.70
2017-11-29T06:04:04.169Z,18.85
2017-11-29T06:06:30.606Z,19.25
2017-11-29T06:08:58.050Z,18.87
2017-11-29T06:11:24.530Z,20.12
2017-11-29T06:13:50.957Z,23.33
2017-11-29T06:16:17.357Z,22.92
2017-11-29T06:18:44.574Z,25.02
2017-11-29T06:21:11.009Z,21.55
2017-11-29T06:23:37.453Z,22.10
2017-11-29T06:26:03.910Z,21.10
2017-11-29T06:28:30.298Z,19.90
2017-11-29T06:30:56.724Z,24.35
2017-11-29T06:33:23.203Z,21.25
2017-11-29T06:35:49.598Z,19.62
2017-11-29T06:38:15.998Z,18.00
2017-11-29T06:40:42.517Z,21.65
2017-11-29T06:43:09.645Z,18.52
2017-11-29T06:45:36.030Z,24.27
2017-11-29T06:48:02.474Z,23.08
2017-11-29T06:50:28.869Z,17.70
2017-11-29T06:52:55.256Z,19.80
2017-11-29T06:55:22.400Z,23.48
2017-11-29T06:57:48.788Z,20.30
2017-11-29T07:00:15.255Z,19.17
2017-11-29T07:02:41.689Z,24.48
2017-11-29T07:05:08.098Z,24.63
2017-11-29T07:07:34.477Z,24.77
2017-11-29T07:10:00.893Z,21.45
2017-11-29T07:12:27.293Z,22.35
2017-11-29T07:14:53.734Z,25.48
2017-11-29T07:17:20.190Z,24.27
2017-11-29T07:19:46.621Z,17.75
2017-11-29T07:22:14.189Z,17.83
2017-11-29T07:24:40.604Z,23.48
2017-11-29T07:27:07.775Z,22.23
2017-11-29T07:29:34.150Z,24.02
2017-11-29T07:32:00.610Z,19.55
2017-11-29T07:34:27.013Z,20.33
2017-11-29T07:36:54.166Z,15.95
2017-11-29T07:39:20.578Z,18.62
2017-11-29T07:41:46.981Z,21.45
2017-11-29T07:44:13.423Z,20.92
2017-11-29T07:46:39.794Z,20.75
2017-11-29T07:49:06.189Z,16.02
2017-11-29T07:51:33.386Z,19.67
2017-11-29T07:53:59.793Z,15.82
2017-11-29T07:56:26.190Z,17.05
2017-11-29T07:58:52.581Z,15.93
2017-11-29T08:01:18.998Z,18.62
2017-11-29T08:03:45.341Z,15.50
2017-11-29T08:06:11.720Z,15.50
2017-11-29T08:08:38.155Z,16.25
2017-11-29T08:11:05.311Z,17.25
2017-11-29T08:13:32.449Z,14.35
2017-11-29T08:15:58.862Z,12.20
2017-11-29T08:18:25.271Z,14.40
2017-11-29T08:20:51.703Z,16.42
2017-11-29T08:23:18.105Z,13.95
2017-11-29T08:25:44.537Z,12.45
2017-11-29T08:28:10.973Z,14.32
2017-11-29T08:30:37.413Z,15.52
2017-11-29T08:33:03.834Z,13.13
2017-11-29T08:35:30.996Z,17.73
2017-11-29T08:37:57.460Z,14.20
2017-11-29T08:40:23.904Z,14.15
2017-11-29T08:42:50.326Z,14.43
2017-11-29T08:45:16.797Z,22.92
2017-11-29T08:47:43.241Z,16.87
2017-11-29T08:50:09.685Z,12.60
2017-11-29T08:52:36.182Z,19.45
2017-11-29T08:55:02.555Z,17.60
2017-11-29T08:57:29.741Z,13.65
2017-11-29T08:59:56.151Z,17.58
2017-11-29T09:02:23.297Z,14.13
2017-11-29T09:04:49.790Z,15.48
2017-11-29T09:07:16.261Z,17.98
2017-11-29T09:09:42.665Z,17.45
2017-11-29T09:12:09.822Z,15.77
2017-11-29T09:14:36.274Z,14.57
2017-11-29T09:17:02.693Z,14.65
2017-11-29T09:19:29.146Z,15.50
2017-11-29T09:21:55.616Z,14.30
2017-11-29T09:24:22.026Z,16.15
2017-11-29T09:26:49.226Z,14.82
2017-11-29T09:29:15.715Z,12.40
2017-11-29T09:31:42.102Z,19.60
2017-11-29T09:34:08.590Z,18.58
2017-11-29T09:36:35.026Z,14.70
2017-11-29T09:39:02.512Z,12.80
2017-11-29T09:41:28.943Z,12.50
2017-11-29T09:43:55.453Z,15.68
2017-11-29T09:46:21.822Z,13.25
2017-11-29T09:48:49.303Z,16.02
2017-11-29T09:51:15.706Z,10.43
2017-11-29T09:53:42.854Z,14.65
2017-11-29T09:56:10.067Z,15.43
2017-11-29T09:58:36.517Z,13.82
2017-11-29T10:01:02.925Z,12.75
2017-11-29T10:03:29.369Z,11.70
2017-11-29T10:05:55.797Z,11.88
2017-11-29T10:08:22.238Z,11.90
2017-11-29T10:10:48.665Z,12.07
2017-11-29T10:13:15.886Z,17.12
2017-11-29T10:15:42.287Z,13.62
2017-11-29T10:18:08.681Z,11.77
2017-11-29T10:20:35.221Z,12.15
2017-11-29T10:23:01.676Z,10.10
2017-11-29T10:25:28.145Z,15.00
2017-11-29T10:27:54.573Z,15.40
2017-11-29T10:30:21.777Z,11.40
2017-11-29T10:32:48.146Z,9.23
2017-11-29T10:35:14.624Z,11.88
2017-11-29T10:37:41.030Z,11.48
2017-11-29T10:40:08.218Z,9.43
2017-11-29T10:42:34.661Z,13.32
2017-11-29T10:45:01.120Z,12.57
2017-11-29T10:47:27.528Z,13.75
2017-11-29T10:49:53.968Z,11.05
2017-11-29T10:52:21.133Z,14.95
2017-11-29T10:54:47.541Z,16.23
2017-11-29T10:57:14.769Z,15.77
2017-11-29T10:59:41.254Z,16.25
2017-11-29T11:02:07.769Z,14.57
2017-11-29T11:04:34.186Z,13.73
2017-11-29T11:07:00.643Z,12.13
2017-11-29T11:09:27.038Z,12.20
2017-11-29T11:11:54.201Z,14.93
2017-11-29T11:14:20.605Z,13.10
2017-11-29T11:16:47.058Z,12.60
2017-11-29T11:19:13.549Z,12.98
2017-11-29T11:21:39.977Z,11.30
2017-11-29T11:24:06.418Z,10.57
2017-11-29T11:26:33.633Z,11.35
2017-11-29T11:29:00.056Z,10.82
2017-11-29T11:31:27.201Z,12.93
2017-11-29T11:33:54.418Z,11.90
2017-11-29T11:36:20.858Z,14.27
2017-11-29T11:38:47.349Z,13.00
2017-11-29T11:41:14.657Z,13.80
2017-11-29T11:43:41.097Z,11.55
2017-11-29T11:46:07.510Z,13.77
2017-11-29T11:48:34.710Z,11.48
2017-11-29T11:51:01.162Z,14.38
2017-11-29T11:53:27.594Z,10.77
2017-11-29T11:55:54.002Z,11.50
2017-11-29T11:58:20.462Z,14.05
2017-11-29T12:00:47.276Z,14.52
2017-11-29T12:03:14.760Z,13.07
2017-11-29T12:05:41.168Z,15.73
2017-11-29T12:08:07.584Z,16.25
2017-11-29T12:10:33.997Z,15.43
2017-11-29T12:13:00.405Z,11.10
2017-11-29T12:15:26.834Z,11.45
2017-11-29T12:17:53.281Z,14.90
2017-11-29T12:20:19.680Z,10.25
2017-11-29T12:22:46.108Z,6.70
2017-11-29T12:25:12.565Z,7.60
2017-11-29T12:27:38.981Z,4.68
2017-11-29T12:30:05.410Z,5.35
2017-11-29T12:32:32.863Z,5.00
2017-11-29T12:34:59.353Z,5.05
2017-11-29T12:37:25.790Z,4.43
2017-11-29T12:39:52.229Z,4.72
2017-11-29T12:42:18.638Z,3.60
2017-11-29T12:44:45.761Z,3.10
2017-11-29T12:47:12.144Z,6.35
2017-11-29T12:49:51.558Z,4.93
2017-11-29T12:52:18.066Z,3.45
2017-11-29T12:54:44.498Z,5.35
2017-11-29T12:57:10.946Z,7.70
2017-11-29T12:59:37.374Z,5.80
2017-11-29T13:02:04.556Z,6.43
2017-11-29T13:04:30.982Z,5.75
2017-11-29T13:06:58.498Z,6.28
2017-11-29T13:09:24.920Z,7.82
2017-11-29T13:11:51.374Z,7.28
2017-11-29T13:14:18.533Z,6.28
2017-11-29T13:16:44.845Z,7.50
2017-11-29T13:19:11.159Z,10.57
2017-11-29T13:24:27.448Z,9.52
2017-11-29T13:26:53.784Z,16.67
2017-11-29T13:29:20.089Z,9.18
2017-11-29T13:31:47.164Z,7.87
2017-11-29T13:34:13.480Z,11.65
2017-11-29T13:36:40.583Z,10.10
2017-11-29T13:39:06.940Z,10.75
2017-11-29T13:41:33.294Z,13.27
2017-11-29T13:43:59.619Z,11.10
2017-11-29T13:46:25.926Z,14.60
2017-11-29T13:48:52.309Z,14.02
2017-11-29T13:51:18.640Z,10.43
2017-11-29T13:53:44.972Z,16.17
2017-11-29T13:56:11.328Z,13.68
2017-11-29T13:58:37.649Z,10.85
2017-11-29T14:01:03.947Z,8.55
2017-11-29T14:03:30.988Z,11.82
2017-11-29T14:05:57.292Z,16.33
2017-11-29T14:08:23.608Z,11.65
2017-11-29T14:10:49.931Z,8.93
2017-11-29T14:13:16.213Z,9.75
2017-11-29T14:15:42.496Z,8.05
2017-11-29T14:18:08.781Z,8.48
2017-11-29T14:20:35.817Z,14.18
2017-11-29T14:23:02.097Z,8.75
2017-11-29T14:25:28.386Z,7.75
2017-11-29T14:27:54.689Z,6.65
2017-11-29T14:30:20.964Z,6.47
2017-11-29T14:32:47.281Z,8.48
2017-11-29T14:35:13.596Z,8.95
2017-11-29T14:37:40.961Z,7.68
2017-11-29T14:40:07.253Z,11.48
2017-11-29T14:42:33.588Z,10.05
2017-11-29T14:44:59.869Z,11.20
2017-11-29T14:47:26.270Z,9.15
2017-11-29T14:49:52.541Z,10.32
2017-11-29T14:52:18.818Z,8.23
2017-11-29T14:54:45.124Z,7.43
2017-11-29T14:57:11.393Z,7.43
2017-11-29T14:59:37.665Z,4.72
2017-11-29T15:02:05.017Z,7.68
2017-11-29T15:04:31.322Z,6.45
2017-11-29T15:06:58.378Z,7.18
2017-11-29T15:09:25.433Z,5.62
2017-11-29T15:11:51.700Z,5.25
2017-11-29T15:14:17.976Z,5.12
2017-11-29T15:16:44.289Z,4.70
2017-11-29T15:19:10.555Z,6.20
2017-11-29T15:21:36.821Z,6.45
2017-11-29T15:24:03.150Z,7.32
2017-11-29T15:26:29.426Z,7.47
2017-11-29T15:28:55.705Z,7.93
2017-11-29T15:31:22.041Z,5.35
2017-11-29T15:33:48.339Z,4.05
2017-11-29T15:36:14.613Z,6.47
2017-11-29T15:38:40.940Z,5.60
2017-11-29T15:41:07.233Z,5.20
2017-11-29T15:43:33.577Z,5.60
2017-11-29T15:45:59.857Z,5.68
2017-11-29T15:48:26.171Z,6.00
2017-11-29T15:50:53.220Z,6.00
2017-11-29T15:53:19.548Z,8.13
2017-11-29T15:55:45.868Z,7.97
2017-11-29T15:58:12.924Z,4.95
2017-11-29T16:00:40.316Z,5.70
2017-11-29T16:03:06.637Z,11.35
2017-11-29T16:05:32.936Z,10.48
2017-11-29T16:07:59.267Z,8.15
2017-11-29T16:10:25.585Z,6.82
2017-11-29T16:12:51.920Z,6.70
2017-11-29T16:15:18.281Z,7.50
2017-11-29T16:17:44.576Z,6.55
2017-11-29T16:20:10.888Z,7.35
2017-11-29T16:22:37.245Z,6.90
2017-11-29T16:25:03.582Z,9.63
2017-11-29T16:27:29.936Z,7.53
2017-11-29T16:29:57.041Z,9.20
2017-11-29T16:32:23.364Z,8.05
2017-11-29T16:34:49.691Z,6.57
2017-11-29T16:37:16.082Z,8.77
2017-11-29T16:39:42.436Z,13.60
2017-11-29T16:42:08.791Z,9.45
2017-11-29T16:44:35.117Z,7.30
2017-11-29T16:47:02.176Z,9.10
2017-11-29T16:49:28.456Z,7.37
2017-11-29T16:51:55.520Z,7.70
2017-11-29T16:54:21.852Z,6.20
2017-11-29T16:56:48.196Z,6.70
2017-11-29T16:59:15.244Z,9.77
2017-11-29T17:01:41.557Z,10.75
2017-11-29T17:04:07.921Z,7.43
2017-11-29T17:06:34.261Z,6.90
2017-11-29T17:09:00.564Z,9.02
2017-11-29T17:11:26.889Z,9.30
2017-11-29T17:13:53.228Z,9.30
2017-11-29T17:16:19.591Z,10.38
2017-11-29T17:18:45.900Z,8.20
2017-11-29T17:21:12.226Z,9.13
2017-11-29T17:23:39.296Z,9.85
2017-11-29T17:26:05.619Z,10.68
2017-11-29T17:28:31.961Z,10.43
2017-11-29T17:30:58.301Z,7.75
2017-11-29T17:33:24.635Z,9.50
2017-11-29T17:35:50.973Z,10.07
2017-11-29T17:38:17.276Z,8.90
2017-11-29T17:40:43.605Z,11.35
2017-11-29T17:43:10.642Z,10.30
2017-11-29T17:45:37.705Z,10.52
2017-11-29T17:48:04.033Z,14.23
2017-11-29T17:50:30.333Z,8.27
2017-11-29T17:52:56.663Z,9.73
2017-11-29T17:55:22.988Z,8.75
2017-11-29T17:57:50.012Z,12.77
2017-11-29T18:00:16.320Z,11.63
2017-11-29T18:02:42.801Z,12.40
2017-11-29T18:05:09.125Z,10.80
2017-11-29T18:07:35.473Z,12.35
2017-11-29T18:10:01.792Z,9.77
2017-11-29T18:12:28.086Z,13.20
2017-11-29T18:14:55.172Z,9.30
2017-11-29T18:17:22.240Z,11.15
2017-11-29T18:19:48.687Z,11.63
2017-11-29T18:22:15.024Z,9.63
2017-11-29T18:24:42.091Z,11.80
2017-11-29T18:27:08.435Z,11.35
2017-11-29T18:29:34.752Z,16.55
2017-11-29T18:32:01.096Z,13.95
2017-11-29T18:34:28.150Z,16.35
2017-11-29T18:36:56.348Z,12.32
2017-11-29T18:39:22.705Z,13.05
2017-11-29T18:41:48.997Z,12.18
2017-11-29T18:44:15.301Z,11.57
2017-11-29T18:46:41.600Z,14.30
2017-11-29T18:49:08.673Z,13.62
2017-11-29T18:51:35.700Z,11.95
2017-11-29T18:54:01.976Z,13.07
2017-11-29T18:56:28.301Z,13.98
2017-11-29T18:58:54.584Z,11.43
2017-11-29T19:01:20.885Z,14.60
2017-11-29T19:03:47.977Z,14.23
2017-11-29T19:06:14.297Z,16.08
2017-11-29T19:08:42.440Z,17.87
2017-11-29T19:11:08.793Z,15.32
2017-11-29T19:13:35.098Z,12.82
2017-11-29T19:16:01.386Z,13.07
2017-11-29T19:18:27.748Z,15.20
2017-11-29T19:20:54.124Z,15.93
2017-11-29T19:23:21.188Z,18.60
2017-11-29T19:25:47.552Z,14.32
2017-11-29T19:28:13.848Z,17.17
2017-11-29T19:30:40.152Z,15.70
2017-11-29T19:33:06.472Z,19.92
2017-11-29T19:35:32.761Z,14.82
2017-11-29T19:37:59.402Z,17.83
2017-11-29T19:40:25.744Z,13.55
2017-11-29T19:42:52.752Z,15.32
2017-11-29T19:45:19.056Z,17.73
2017-11-29T19:47:45.353Z,13.23
2017-11-29T19:50:11.640Z,18.20
2017-11-29T19:52:38.000Z,14.87
2017-11-29T19:55:04.272Z,12.60
2017-11-29T19:57:30.596Z,16.17
2017-11-29T19:59:56.926Z,9.90
2017-11-29T20:02:23.257Z,12.13
2017-11-29T20:04:50.316Z,11.12
2017-11-29T20:07:16.701Z,8.80
2017-11-29T20:09:43.033Z,8.90
2017-11-29T20:12:09.388Z,13.02
2017-11-29T20:14:35.712Z,13.25
2017-11-29T20:17:02.045Z,11.10
2017-11-29T20:19:28.456Z,12.45
2017-11-29T20:21:55.513Z,8.68
2017-11-29T20:24:21.855Z,11.18
2017-11-29T20:26:48.160Z,13.82
2017-11-29T20:29:14.493Z,18.90
2017-11-29T20:31:40.789Z,8.43
2017-11-29T20:34:07.118Z,10.93
2017-11-29T20:36:34.152Z,10.32
2017-11-29T20:39:00.449Z,13.57
2017-11-29T20:41:27.487Z,10.77
2017-11-29T20:43:54.533Z,10.80
2017-11-29T20:46:20.816Z,11.43
2017-11-29T20:48:47.093Z,12.65
2017-11-29T20:51:13.436Z,19.27
2017-11-29T20:53:39.720Z,11.27
2017-11-29T20:56:06.748Z,11.80
2017-11-29T20:58:33.072Z,16.87
2017-11-29T21:00:59.356Z,14.82
2017-11-29T21:03:25.644Z,12.27
2017-11-29T21:05:52.676Z,14.87
2017-11-29T21:08:18.988Z,15.52
2017-11-29T21:10:46.301Z,15.82
2017-11-29T21:13:12.598Z,24.58
2017-11-29T21:15:38.964Z,13.25
2017-11-29T21:18:05.268Z,11.35
2017-11-29T21:20:31.609Z,14.32
2017-11-29T21:22:57.873Z,13.13
2017-11-29T21:25:24.158Z,16.85
2017-11-29T21:27:50.469Z,14.65
2017-11-29T21:30:17.476Z,15.13
2017-11-29T21:32:43.755Z,16.90
2017-11-29T21:35:10.076Z,15.77
2017-11-29T21:37:36.492Z,13.90
2017-11-29T21:40:02.809Z,17.05
2017-11-29T21:42:29.124Z,20.10
2017-11-29T21:44:55.394Z,17.67
2017-11-29T21:47:21.769Z,15.57
2017-11-29T21:49:48.056Z,17.75
2017-11-29T21:52:14.329Z,16.62
2017-11-29T21:54:41.727Z,17.87
2017-11-29T21:57:08.041Z,18.12
2017-11-29T21:59:34.354Z,15.25
2017-11-29T22:02:01.393Z,18.15
2017-11-29T22:04:28.489Z,18.37
2017-11-29T22:06:55.869Z,19.48
2017-11-29T22:09:22.169Z,19.58
2017-11-29T22:11:48.496Z,18.52
2017-11-29T22:14:14.761Z,18.02
2017-11-29T22:16:41.768Z,19.33
2017-11-29T22:19:08.133Z,20.40
2017-11-29T22:21:34.492Z,16.98
2017-11-29T22:24:00.780Z,18.15
2017-11-29T22:26:27.121Z,20.48
2017-11-29T22:28:53.452Z,15.68
2017-11-29T22:31:19.712Z,17.08
2017-11-29T22:33:46.033Z,19.12
2017-11-29T22:36:12.311Z,15.68
2017-11-29T22:38:39.346Z,20.40
2017-11-29T22:41:06.402Z,18.02
2017-11-29T22:43:32.698Z,21.02
2017-11-29T22:45:58.990Z,21.33
2017-11-29T22:48:25.333Z,17.20
2017-11-29T22:50:51.644Z,18.40
2017-11-29T22:53:18.668Z,20.48
2017-11-29T22:55:46.008Z,19.00
2017-11-29T22:58:12.284Z,22.62
2017-11-29T23:00:38.608Z,19.25
2017-11-29T23:03:04.897Z,23.65
2017-11-29T23:05:31.937Z,17.50
2017-11-29T23:07:58.200Z,23.42
2017-11-29T23:10:24.525Z,19.08
2017-11-29T23:12:51.577Z,18.77
2017-11-29T23:15:17.869Z,22.20
2017-11-29T23:17:44.201Z,30.42
2017-11-29T23:20:10.516Z,19.33
2017-11-29T23:22:37.581Z,22.10
2017-11-29T23:25:05.028Z,25.75
2017-11-29T23:27:32.149Z,20.40
2017-11-29T23:29:58.541Z,22.45
2017-11-29T23:32:25.001Z,24.42
2017-11-29T23:34:51.384Z,19.55
2017-11-29T23:37:17.821Z,22.37
2017-11-29T23:39:44.254Z,23.30
2017-11-29T23:42:10.660Z,20.33
2017-11-29T23:44:37.805Z,25.30
2017-11-29T23:47:05.026Z,28.27
2017-11-29T23:49:31.527Z,23.60
2017-11-29T23:51:58.680Z,32.40
2017-11-29T23:54:25.161Z,24.10
2017-11-29T23:56:51.535Z,28.65
2017-11-29T23:59:17.974Z,23.20
